sensor_id;sensor_type;location;lat;lon;timestamp;temperature;humidity
17687;DHT22;8962;52.538;13.266;2022-12-16T00:01:08;-5.30;99.90
17687;DHT22;8962;52.538;13.266;2022-12-16T00:03:36;-5.30;99.90
17687;DHT22;8962;52.538;13.266;2022-12-16T00:06:03;-5.30;99.90
17687;DHT22;8962;52.538;13.266;2022-12-16T00:08:34;-5.30;99.90
17687;DHT22;8962;52.538;13.266;2022-12-16T00:11:02;-5.30;99.90
17687;DHT22;8962;52.538;13.266;2022-12-16T00:13:32;-5.30;99.90
17687;DHT22;8962;52.538;13.266;2022-12-16T00:16:03;-5.40;99.90
17687;DHT22;8962;52.538;13.266;2022-12-16T00:18:32;-5.40;99.90
17687;DHT22;8962;52.538;13.266;2022-12-16T00:21:02;-5.40;99.90
17687;DHT22;8962;52.538;13.266;2022-12-16T00:23:30;-5.40;99.90
17687;DHT22;8962;52.538;13.266;2022-12-16T00:26:00;-5.40;99.90
17687;DHT22;8962;52.538;13.266;2022-12-16T00:28:28;-5.40;99.90
17687;DHT22;8962;52.538;13.266;2022-12-16T00:30:56;-5.40;99.90
17687;DHT22;8962;52.538;13.266;2022-12-16T00:33:25;-5.50;99.90
17687;DHT22;8962;52.538;13.266;2022-12-16T00:35:54;-5.50;99.90
17687;DHT22;8962;52.538;13.266;2022-12-16T00:38:24;-5.50;99.90
17687;DHT22;8962;52.538;13.266;2022-12-16T00:40:51;-5.50;99.90
17687;DHT22;8962;52.538;13.266;2022-12-16T00:43:18;-5.50;99.90
17687;DHT22;8962;52.538;13.266;2022-12-16T00:45:47;-5.40;99.90
17687;DHT22;8962;52.538;13.266;2022-12-16T00:48:15;-5.40;99.90
17687;DHT22;8962;52.538;13.266;2022-12-16T00:50:45;-5.40;99.90
17687;DHT22;8962;52.538;13.266;2022-12-16T00:53:18;-5.40;99.90
17687;DHT22;8962;52.538;13.266;2022-12-16T00:55:46;-5.40;99.90
17687;DHT22;8962;52.538;13.266;2022-12-16T00:58:15;-5.40;99.90
17687;DHT22;8962;52.538;13.266;2022-12-16T01:00:42;-5.50;99.90
17687;DHT22;8962;52.538;13.266;2022-12-16T01:03:11;-5.50;99.90
17687;DHT22;8962;52.538;13.266;2022-12-16T01:05:38;-5.50;99.90
17687;DHT22;8962;52.538;13.266;2022-12-16T01:08:06;-5.50;99.90
17687;DHT22;8962;52.538;13.266;2022-12-16T01:10:34;-5.50;99.90
17687;DHT22;8962;52.538;13.266;2022-12-16T01:13:03;-5.50;99.90
17687;DHT22;8962;52.538;13.266;2022-12-16T01:15:30;-5.50;99.90
17687;DHT22;8962;52.538;13.266;2022-12-16T01:17:58;-5.40;99.90
17687;DHT22;8962;52.538;13.266;2022-12-16T01:20:26;-5.40;99.90
17687;DHT22;8962;52.538;13.266;2022-12-16T01:22:55;-5.50;99.90
17687;DHT22;8962;52.538;13.266;2022-12-16T01:25:25;-5.50;99.90
17687;DHT22;8962;52.538;13.266;2022-12-16T01:27:55;-5.50;99.90
17687;DHT22;8962;52.538;13.266;2022-12-16T01:30:23;-5.50;99.90
17687;DHT22;8962;52.538;13.266;2022-12-16T01:32:52;-5.50;99.90
17687;DHT22;8962;52.538;13.266;2022-12-16T01:35:20;-5.50;99.90
17687;DHT22;8962;52.538;13.266;2022-12-16T01:37:47;-5.60;99.90
17687;DHT22;8962;52.538;13.266;2022-12-16T01:40:18;-5.60;99.90
17687;DHT22;8962;52.538;13.266;2022-12-16T01:42:47;-5.60;99.90
17687;DHT22;8962;52.538;13.266;2022-12-16T01:45:31;-5.60;99.90
17687;DHT22;8962;52.538;13.266;2022-12-16T01:48:04;-5.60;99.90
17687;DHT22;8962;52.538;13.266;2022-12-16T01:50:34;-5.70;99.90
17687;DHT22;8962;52.538;13.266;2022-12-16T01:53:03;-5.70;99.90
17687;DHT22;8962;52.538;13.266;2022-12-16T01:55:35;-5.80;99.90
17687;DHT22;8962;52.538;13.266;2022-12-16T01:58:07;-5.90;99.90
17687;DHT22;8962;52.538;13.266;2022-12-16T02:00:44;-6.00;99.90
17687;DHT22;8962;52.538;13.266;2022-12-16T02:03:11;-6.10;99.90
17687;DHT22;8962;52.538;13.266;2022-12-16T02:05:40;-6.20;99.90
17687;DHT22;8962;52.538;13.266;2022-12-16T02:08:12;-6.10;99.90
17687;DHT22;8962;52.538;13.266;2022-12-16T02:10:53;-6.10;99.90
17687;DHT22;8962;52.538;13.266;2022-12-16T02:13:33;-6.10;99.90
17687;DHT22;8962;52.538;13.266;2022-12-16T02:16:13;-6.10;99.90
17687;DHT22;8962;52.538;13.266;2022-12-16T02:18:49;-6.20;99.90
17687;DHT22;8962;52.538;13.266;2022-12-16T02:21:42;-6.20;99.90
17687;DHT22;8962;52.538;13.266;2022-12-16T02:24:45;-6.20;99.90
17687;DHT22;8962;52.538;13.266;2022-12-16T02:30:39;-6.20;99.90
17687;DHT22;8962;52.538;13.266;2022-12-16T02:33:27;-6.20;99.90
17687;DHT22;8962;52.538;13.266;2022-12-16T02:36:05;-6.20;99.90
17687;DHT22;8962;52.538;13.266;2022-12-16T02:38:40;-6.20;99.90
17687;DHT22;8962;52.538;13.266;2022-12-16T02:41:20;-6.20;99.90
17687;DHT22;8962;52.538;13.266;2022-12-16T02:43:52;-6.10;99.90
17687;DHT22;8962;52.538;13.266;2022-12-16T02:46:29;-6.10;99.90
17687;DHT22;8962;52.538;13.266;2022-12-16T02:49:04;-6.20;99.90
17687;DHT22;8962;52.538;13.266;2022-12-16T02:51:32;-6.20;99.90
17687;DHT22;8962;52.538;13.266;2022-12-16T02:54:02;-6.20;99.90
17687;DHT22;8962;52.538;13.266;2022-12-16T02:56:40;-6.20;99.90
17687;DHT22;8962;52.538;13.266;2022-12-16T02:59:16;-6.20;99.90
17687;DHT22;8962;52.538;13.266;2022-12-16T03:01:54;-6.20;99.90
17687;DHT22;8962;52.538;13.266;2022-12-16T03:04:30;-6.20;99.90
17687;DHT22;8962;52.538;13.266;2022-12-16T03:07:04;-6.20;99.90
17687;DHT22;8962;52.538;13.266;2022-12-16T03:09:37;-6.20;99.90
17687;DHT22;8962;52.538;13.266;2022-12-16T03:12:09;-6.20;99.90
17687;DHT22;8962;52.538;13.266;2022-12-16T03:14:41;-6.20;99.90
17687;DHT22;8962;52.538;13.266;2022-12-16T03:17:13;-6.30;99.90
17687;DHT22;8962;52.538;13.266;2022-12-16T03:19:46;-6.20;99.90
17687;DHT22;8962;52.538;13.266;2022-12-16T03:22:19;-6.30;99.90
17687;DHT22;8962;52.538;13.266;2022-12-16T03:24:47;-6.30;99.90
17687;DHT22;8962;52.538;13.266;2022-12-16T03:27:18;-6.30;99.90
17687;DHT22;8962;52.538;13.266;2022-12-16T03:29:52;-6.30;99.90
17687;DHT22;8962;52.538;13.266;2022-12-16T03:32:25;-6.30;99.90
17687;DHT22;8962;52.538;13.266;2022-12-16T03:34:59;-6.30;99.90
17687;DHT22;8962;52.538;13.266;2022-12-16T03:37:31;-6.30;99.90
17687;DHT22;8962;52.538;13.266;2022-12-16T03:40:01;-6.20;99.90
17687;DHT22;8962;52.538;13.266;2022-12-16T03:42:30;-6.20;99.90
17687;DHT22;8962;52.538;13.266;2022-12-16T03:44:58;-6.20;99.90
17687;DHT22;8962;52.538;13.266;2022-12-16T03:47:28;-6.30;99.90
17687;DHT22;8962;52.538;13.266;2022-12-16T03:49:57;-6.30;99.90
17687;DHT22;8962;52.538;13.266;2022-12-16T03:52:24;-6.40;99.90
17687;DHT22;8962;52.538;13.266;2022-12-16T03:54:54;-6.40;99.90
17687;DHT22;8962;52.538;13.266;2022-12-16T03:57:21;-6.40;99.90
17687;DHT22;8962;52.538;13.266;2022-12-16T03:59:48;-6.40;99.90
17687;DHT22;8962;52.538;13.266;2022-12-16T04:02:15;-6.50;99.90
17687;DHT22;8962;52.538;13.266;2022-12-16T04:04:44;-6.50;99.90
17687;DHT22;8962;52.538;13.266;2022-12-16T04:07:13;-6.50;99.90
17687;DHT22;8962;52.538;13.266;2022-12-16T04:09:46;-6.50;99.90
17687;DHT22;8962;52.538;13.266;2022-12-16T04:12:14;-6.60;99.90
17687;DHT22;8962;52.538;13.266;2022-12-16T04:14:59;-6.60;99.90
17687;DHT22;8962;52.538;13.266;2022-12-16T04:17:43;-6.60;99.90
17687;DHT22;8962;52.538;13.266;2022-12-16T04:20:34;-6.60;99.90
17687;DHT22;8962;52.538;13.266;2022-12-16T04:23:19;-6.70;99.90
17687;DHT22;8962;52.538;13.266;2022-12-16T04:26:05;-6.70;99.90
17687;DHT22;8962;52.538;13.266;2022-12-16T04:28:34;-6.70;99.90
17687;DHT22;8962;52.538;13.266;2022-12-16T04:31:04;-6.70;99.90
17687;DHT22;8962;52.538;13.266;2022-12-16T04:33:32;-6.70;99.90
17687;DHT22;8962;52.538;13.266;2022-12-16T04:36:19;-6.70;99.90
17687;DHT22;8962;52.538;13.266;2022-12-16T04:39:04;-6.70;99.90
17687;DHT22;8962;52.538;13.266;2022-12-16T04:41:51;-6.70;99.90
17687;DHT22;8962;52.538;13.266;2022-12-16T04:44:35;-6.80;99.90
17687;DHT22;8962;52.538;13.266;2022-12-16T04:47:23;-6.80;99.90
17687;DHT22;8962;52.538;13.266;2022-12-16T04:50:08;-6.80;99.90
17687;DHT22;8962;52.538;13.266;2022-12-16T04:52:54;-6.80;99.90
17687;DHT22;8962;52.538;13.266;2022-12-16T04:55:39;-6.80;99.90
17687;DHT22;8962;52.538;13.266;2022-12-16T04:58:24;-6.80;99.90
17687;DHT22;8962;52.538;13.266;2022-12-16T05:01:09;-6.80;99.90
17687;DHT22;8962;52.538;13.266;2022-12-16T05:03:54;-6.70;99.90
17687;DHT22;8962;52.538;13.266;2022-12-16T05:06:38;-6.70;99.90
17687;DHT22;8962;52.538;13.266;2022-12-16T05:09:24;-6.70;99.90
17687;DHT22;8962;52.538;13.266;2022-12-16T05:12:08;-6.70;99.90
17687;DHT22;8962;52.538;13.266;2022-12-16T05:14:53;-6.60;99.90
17687;DHT22;8962;52.538;13.266;2022-12-16T05:17:38;-6.70;99.90
17687;DHT22;8962;52.538;13.266;2022-12-16T05:20:23;-6.60;99.90
17687;DHT22;8962;52.538;13.266;2022-12-16T05:23:08;-6.70;99.90
17687;DHT22;8962;52.538;13.266;2022-12-16T05:25:53;-6.60;99.90
17687;DHT22;8962;52.538;13.266;2022-12-16T05:28:38;-6.70;99.90
17687;DHT22;8962;52.538;13.266;2022-12-16T05:31:22;-6.70;99.90
17687;DHT22;8962;52.538;13.266;2022-12-16T05:34:09;-6.70;99.90
17687;DHT22;8962;52.538;13.266;2022-12-16T05:36:55;-6.80;99.90
17687;DHT22;8962;52.538;13.266;2022-12-16T05:39:40;-6.80;99.90
17687;DHT22;8962;52.538;13.266;2022-12-16T05:42:28;-6.80;99.90
17687;DHT22;8962;52.538;13.266;2022-12-16T05:45:13;-6.70;99.90
17687;DHT22;8962;52.538;13.266;2022-12-16T05:48:05;-6.70;99.90
17687;DHT22;8962;52.538;13.266;2022-12-16T05:50:50;-6.70;99.90
17687;DHT22;8962;52.538;13.266;2022-12-16T05:53:35;-6.70;99.90
17687;DHT22;8962;52.538;13.266;2022-12-16T05:56:19;-6.70;99.90
17687;DHT22;8962;52.538;13.266;2022-12-16T05:59:06;-6.70;99.90
17687;DHT22;8962;52.538;13.266;2022-12-16T06:01:53;-6.70;99.90
17687;DHT22;8962;52.538;13.266;2022-12-16T06:04:37;-6.60;99.90
17687;DHT22;8962;52.538;13.266;2022-12-16T06:07:23;-6.70;99.90
17687;DHT22;8962;52.538;13.266;2022-12-16T06:10:07;-6.70;99.90
17687;DHT22;8962;52.538;13.266;2022-12-16T06:12:54;-6.70;99.90
17687;DHT22;8962;52.538;13.266;2022-12-16T06:15:40;-6.70;99.90
17687;DHT22;8962;52.538;13.266;2022-12-16T06:18:24;-6.70;99.90
17687;DHT22;8962;52.538;13.266;2022-12-16T06:21:10;-6.60;99.90
17687;DHT22;8962;52.538;13.266;2022-12-16T06:23:56;-6.60;99.90
17687;DHT22;8962;52.538;13.266;2022-12-16T06:26:42;-6.60;99.90
17687;DHT22;8962;52.538;13.266;2022-12-16T06:29:26;-6.60;99.90
17687;DHT22;8962;52.538;13.266;2022-12-16T06:32:13;-6.50;99.90
17687;DHT22;8962;52.538;13.266;2022-12-16T06:34:58;-6.50;99.90
17687;DHT22;8962;52.538;13.266;2022-12-16T06:37:46;-6.60;99.90
17687;DHT22;8962;52.538;13.266;2022-12-16T06:40:31;-6.60;99.90
17687;DHT22;8962;52.538;13.266;2022-12-16T06:43:16;-6.60;99.90
17687;DHT22;8962;52.538;13.266;2022-12-16T06:46:00;-6.60;99.90
17687;DHT22;8962;52.538;13.266;2022-12-16T06:48:46;-6.70;99.90
17687;DHT22;8962;52.538;13.266;2022-12-16T06:51:30;-6.70;99.90
17687;DHT22;8962;52.538;13.266;2022-12-16T06:54:14;-6.70;99.90
17687;DHT22;8962;52.538;13.266;2022-12-16T06:56:59;-6.70;99.90
17687;DHT22;8962;52.538;13.266;2022-12-16T06:59:45;-6.70;99.90
17687;DHT22;8962;52.538;13.266;2022-12-16T07:02:30;-6.70;99.90
17687;DHT22;8962;52.538;13.266;2022-12-16T07:05:19;-6.70;99.90
17687;DHT22;8962;52.538;13.266;2022-12-16T07:08:04;-6.80;99.90
17687;DHT22;8962;52.538;13.266;2022-12-16T07:10:48;-6.70;99.90
17687;DHT22;8962;52.538;13.266;2022-12-16T07:13:37;-6.80;99.90
17687;DHT22;8962;52.538;13.266;2022-12-16T07:16:22;-6.80;99.90
17687;DHT22;8962;52.538;13.266;2022-12-16T07:19:15;-6.70;99.90
17687;DHT22;8962;52.538;13.266;2022-12-16T07:22:01;-6.70;99.90
17687;DHT22;8962;52.538;13.266;2022-12-16T07:24:54;-6.70;99.90
17687;DHT22;8962;52.538;13.266;2022-12-16T07:27:45;-6.70;99.90
17687;DHT22;8962;52.538;13.266;2022-12-16T07:30:29;-6.70;99.90
17687;DHT22;8962;52.538;13.266;2022-12-16T07:33:16;-6.60;99.90
17687;DHT22;8962;52.538;13.266;2022-12-16T07:36:00;-6.60;99.90
17687;DHT22;8962;52.538;13.266;2022-12-16T07:38:47;-6.60;99.90
17687;DHT22;8962;52.538;13.266;2022-12-16T07:41:31;-6.60;99.90
17687;DHT22;8962;52.538;13.266;2022-12-16T07:44:19;-6.60;99.90
17687;DHT22;8962;52.538;13.266;2022-12-16T07:47:04;-6.50;99.90
17687;DHT22;8962;52.538;13.266;2022-12-16T07:49:48;-6.50;99.90
17687;DHT22;8962;52.538;13.266;2022-12-16T07:52:33;-6.50;99.90
17687;DHT22;8962;52.538;13.266;2022-12-16T07:55:15;-6.50;99.90
17687;DHT22;8962;52.538;13.266;2022-12-16T07:58:00;-6.50;99.90
17687;DHT22;8962;52.538;13.266;2022-12-16T08:00:47;-6.60;99.90
17687;DHT22;8962;52.538;13.266;2022-12-16T08:03:34;-6.60;99.90
17687;DHT22;8962;52.538;13.266;2022-12-16T08:06:15;-6.60;99.90
17687;DHT22;8962;52.538;13.266;2022-12-16T08:09:00;-6.60;99.90
17687;DHT22;8962;52.538;13.266;2022-12-16T08:11:47;-6.60;99.90
17687;DHT22;8962;52.538;13.266;2022-12-16T08:14:32;-6.60;99.90
17687;DHT22;8962;52.538;13.266;2022-12-16T08:17:17;-6.60;99.90
17687;DHT22;8962;52.538;13.266;2022-12-16T08:20:02;-6.50;99.90
17687;DHT22;8962;52.538;13.266;2022-12-16T08:22:46;-6.50;99.90
17687;DHT22;8962;52.538;13.266;2022-12-16T08:25:31;-6.50;99.90
17687;DHT22;8962;52.538;13.266;2022-12-16T08:28:18;-6.50;99.90
17687;DHT22;8962;52.538;13.266;2022-12-16T08:31:05;-6.40;99.90
17687;DHT22;8962;52.538;13.266;2022-12-16T08:33:50;-6.40;99.90
17687;DHT22;8962;52.538;13.266;2022-12-16T08:36:35;-6.30;99.90
17687;DHT22;8962;52.538;13.266;2022-12-16T08:39:16;-6.20;99.90
17687;DHT22;8962;52.538;13.266;2022-12-16T08:42:00;-6.00;99.90
17687;DHT22;8962;52.538;13.266;2022-12-16T08:44:46;-5.80;99.90
17687;DHT22;8962;52.538;13.266;2022-12-16T08:47:31;-5.50;99.90
17687;DHT22;8962;52.538;13.266;2022-12-16T08:50:17;-5.40;99.90
17687;DHT22;8962;52.538;13.266;2022-12-16T08:53:04;-5.20;99.90
17687;DHT22;8962;52.538;13.266;2022-12-16T08:55:52;-5.00;99.90
17687;DHT22;8962;52.538;13.266;2022-12-16T08:58:52;-4.90;99.90
17687;DHT22;8962;52.538;13.266;2022-12-16T09:01:38;-4.80;99.90
17687;DHT22;8962;52.538;13.266;2022-12-16T09:04:25;-4.80;99.90
17687;DHT22;8962;52.538;13.266;2022-12-16T09:07:09;-4.80;99.90
17687;DHT22;8962;52.538;13.266;2022-12-16T09:09:55;-4.70;99.90
17687;DHT22;8962;52.538;13.266;2022-12-16T09:12:40;-4.70;99.90
17687;DHT22;8962;52.538;13.266;2022-12-16T09:15:24;-4.60;99.90
17687;DHT22;8962;52.538;13.266;2022-12-16T09:18:11;-4.60;99.90
17687;DHT22;8962;52.538;13.266;2022-12-16T09:20:55;-4.50;99.90
17687;DHT22;8962;52.538;13.266;2022-12-16T09:23:42;-4.60;99.90
17687;DHT22;8962;52.538;13.266;2022-12-16T09:26:28;-4.60;99.90
17687;DHT22;8962;52.538;13.266;2022-12-16T09:29:13;-4.30;99.90
17687;DHT22;8962;52.538;13.266;2022-12-16T09:31:57;-4.20;99.90
17687;DHT22;8962;52.538;13.266;2022-12-16T09:34:43;-4.10;99.90
17687;DHT22;8962;52.538;13.266;2022-12-16T09:37:30;-4.00;99.90
17687;DHT22;8962;52.538;13.266;2022-12-16T09:40:16;-3.90;99.90
17687;DHT22;8962;52.538;13.266;2022-12-16T09:46:34;-3.60;99.90
17687;DHT22;8962;52.538;13.266;2022-12-16T09:49:32;-3.50;99.90
17687;DHT22;8962;52.538;13.266;2022-12-16T09:52:23;-3.40;99.90
17687;DHT22;8962;52.538;13.266;2022-12-16T09:55:21;-3.30;99.90
17687;DHT22;8962;52.538;13.266;2022-12-16T09:58:08;-3.30;99.90
17687;DHT22;8962;52.538;13.266;2022-12-16T10:00:54;-3.20;99.90
17687;DHT22;8962;52.538;13.266;2022-12-16T10:03:40;-3.20;99.90
17687;DHT22;8962;52.538;13.266;2022-12-16T10:06:32;-3.10;99.90
17687;DHT22;8962;52.538;13.266;2022-12-16T10:09:26;-3.10;99.90
17687;DHT22;8962;52.538;13.266;2022-12-16T10:12:25;-3.10;99.90
17687;DHT22;8962;52.538;13.266;2022-12-16T10:15:25;-3.00;99.90
17687;DHT22;8962;52.538;13.266;2022-12-16T10:18:20;-2.80;99.90
17687;DHT22;8962;52.538;13.266;2022-12-16T10:21:12;-2.50;99.90
17687;DHT22;8962;52.538;13.266;2022-12-16T10:24:06;-2.40;99.90
17687;DHT22;8962;52.538;13.266;2022-12-16T10:27:01;-2.30;99.90
17687;DHT22;8962;52.538;13.266;2022-12-16T10:29:48;-2.30;99.90
17687;DHT22;8962;52.538;13.266;2022-12-16T10:32:37;-2.20;99.90
17687;DHT22;8962;52.538;13.266;2022-12-16T10:35:29;-2.30;99.90
17687;DHT22;8962;52.538;13.266;2022-12-16T10:38:20;-2.20;99.90
17687;DHT22;8962;52.538;13.266;2022-12-16T10:41:06;-2.30;99.90
17687;DHT22;8962;52.538;13.266;2022-12-16T10:43:54;-2.10;99.90
17687;DHT22;8962;52.538;13.266;2022-12-16T10:46:40;-2.10;99.90
17687;DHT22;8962;52.538;13.266;2022-12-16T10:49:26;-1.90;99.90
17687;DHT22;8962;52.538;13.266;2022-12-16T10:52:12;-2.00;99.90
17687;DHT22;8962;52.538;13.266;2022-12-16T10:55:02;-1.80;99.90
17687;DHT22;8962;52.538;13.266;2022-12-16T10:57:59;-1.80;99.90
17687;DHT22;8962;52.538;13.266;2022-12-16T11:00:54;-1.70;99.90
17687;DHT22;8962;52.538;13.266;2022-12-16T11:03:39;-1.60;99.90
17687;DHT22;8962;52.538;13.266;2022-12-16T11:06:26;-1.50;99.90
17687;DHT22;8962;52.538;13.266;2022-12-16T11:09:20;-1.30;99.90
17687;DHT22;8962;52.538;13.266;2022-12-16T11:12:21;-1.40;99.90
17687;DHT22;8962;52.538;13.266;2022-12-16T11:15:20;-1.60;99.90
17687;DHT22;8962;52.538;13.266;2022-12-16T11:18:11;-1.60;99.90
17687;DHT22;8962;52.538;13.266;2022-12-16T11:21:11;-1.50;99.90
17687;DHT22;8962;52.538;13.266;2022-12-16T11:24:13;-1.50;99.90
17687;DHT22;8962;52.538;13.266;2022-12-16T11:27:00;-1.40;99.90
17687;DHT22;8962;52.538;13.266;2022-12-16T11:29:55;-1.30;99.90
17687;DHT22;8962;52.538;13.266;2022-12-16T11:32:44;-1.30;99.90
17687;DHT22;8962;52.538;13.266;2022-12-16T11:35:33;-1.30;99.90
17687;DHT22;8962;52.538;13.266;2022-12-16T11:38:22;-1.30;99.90
17687;DHT22;8962;52.538;13.266;2022-12-16T11:41:20;-1.10;99.90
17687;DHT22;8962;52.538;13.266;2022-12-16T11:44:15;-1.00;99.90
17687;DHT22;8962;52.538;13.266;2022-12-16T11:47:05;-0.80;99.90
17687;DHT22;8962;52.538;13.266;2022-12-16T11:49:59;-0.90;99.90
17687;DHT22;8962;52.538;13.266;2022-12-16T11:52:51;-1.30;99.90
17687;DHT22;8962;52.538;13.266;2022-12-16T11:55:42;-1.20;99.90
17687;DHT22;8962;52.538;13.266;2022-12-16T11:58:32;-1.20;99.90
17687;DHT22;8962;52.538;13.266;2022-12-16T12:01:26;-0.90;99.90
17687;DHT22;8962;52.538;13.266;2022-12-16T12:04:12;-1.00;99.90
17687;DHT22;8962;52.538;13.266;2022-12-16T12:07:09;-0.80;99.90
17687;DHT22;8962;52.538;13.266;2022-12-16T12:10:03;-0.90;99.90
17687;DHT22;8962;52.538;13.266;2022-12-16T12:13:10;-0.90;99.90
17687;DHT22;8962;52.538;13.266;2022-12-16T12:16:07;-1.10;99.90
17687;DHT22;8962;52.538;13.266;2022-12-16T12:18:59;-1.20;99.90
17687;DHT22;8962;52.538;13.266;2022-12-16T12:21:51;-1.20;99.90
17687;DHT22;8962;52.538;13.266;2022-12-16T12:24:40;-1.10;99.90
17687;DHT22;8962;52.538;13.266;2022-12-16T12:27:34;-1.20;99.90
17687;DHT22;8962;52.538;13.266;2022-12-16T12:30:22;-1.10;99.90
17687;DHT22;8962;52.538;13.266;2022-12-16T12:33:23;-1.10;99.90
17687;DHT22;8962;52.538;13.266;2022-12-16T12:36:14;-1.10;99.90
17687;DHT22;8962;52.538;13.266;2022-12-16T12:39:09;-1.00;99.90
17687;DHT22;8962;52.538;13.266;2022-12-16T12:42:10;-1.10;99.90
17687;DHT22;8962;52.538;13.266;2022-12-16T12:45:12;-1.10;99.90
17687;DHT22;8962;52.538;13.266;2022-12-16T12:48:03;-1.20;99.90
17687;DHT22;8962;52.538;13.266;2022-12-16T12:50:54;-1.10;99.90
17687;DHT22;8962;52.538;13.266;2022-12-16T12:53:57;-1.00;99.90
17687;DHT22;8962;52.538;13.266;2022-12-16T12:56:47;-0.90;99.90
17687;DHT22;8962;52.538;13.266;2022-12-16T12:59:48;-0.70;99.90
17687;DHT22;8962;52.538;13.266;2022-12-16T13:02:43;-0.80;99.90
17687;DHT22;8962;52.538;13.266;2022-12-16T13:05:33;-0.80;99.90
17687;DHT22;8962;52.538;13.266;2022-12-16T13:08:44;-0.90;99.90
17687;DHT22;8962;52.538;13.266;2022-12-16T13:11:29;-0.80;99.90
17687;DHT22;8962;52.538;13.266;2022-12-16T13:14:52;-0.90;99.90
17687;DHT22;8962;52.538;13.266;2022-12-16T13:20:57;-1.00;99.90
17687;DHT22;8962;52.538;13.266;2022-12-16T13:23:42;-1.00;99.90
17687;DHT22;8962;52.538;13.266;2022-12-16T13:26:28;-1.00;99.90
17687;DHT22;8962;52.538;13.266;2022-12-16T13:29:18;-0.90;99.90
17687;DHT22;8962;52.538;13.266;2022-12-16T13:32:15;-1.00;99.90
17687;DHT22;8962;52.538;13.266;2022-12-16T13:35:16;-0.90;99.90
17687;DHT22;8962;52.538;13.266;2022-12-16T13:38:17;-0.90;99.90
17687;DHT22;8962;52.538;13.266;2022-12-16T13:41:04;-1.00;99.90
17687;DHT22;8962;52.538;13.266;2022-12-16T13:43:52;-1.10;99.90
17687;DHT22;8962;52.538;13.266;2022-12-16T13:46:42;-1.20;99.90
17687;DHT22;8962;52.538;13.266;2022-12-16T13:49:40;-1.20;99.90
17687;DHT22;8962;52.538;13.266;2022-12-16T13:52:34;-1.20;99.90
17687;DHT22;8962;52.538;13.266;2022-12-16T13:55:26;-1.20;99.90
17687;DHT22;8962;52.538;13.266;2022-12-16T13:58:20;-1.10;99.90
17687;DHT22;8962;52.538;13.266;2022-12-16T14:01:10;-1.20;99.90
17687;DHT22;8962;52.538;13.266;2022-12-16T14:04:13;-1.20;99.90
17687;DHT22;8962;52.538;13.266;2022-12-16T14:07:05;-1.30;99.90
17687;DHT22;8962;52.538;13.266;2022-12-16T14:09:51;-1.30;99.90
17687;DHT22;8962;52.538;13.266;2022-12-16T14:12:57;-1.30;99.90
17687;DHT22;8962;52.538;13.266;2022-12-16T14:15:54;-1.30;99.90
17687;DHT22;8962;52.538;13.266;2022-12-16T14:18:47;-1.30;99.90
17687;DHT22;8962;52.538;13.266;2022-12-16T14:21:39;-1.40;99.90
17687;DHT22;8962;52.538;13.266;2022-12-16T14:24:27;-1.30;99.90
17687;DHT22;8962;52.538;13.266;2022-12-16T14:27:15;-1.40;99.90
17687;DHT22;8962;52.538;13.266;2022-12-16T14:30:11;-1.50;99.90
17687;DHT22;8962;52.538;13.266;2022-12-16T14:32:58;-1.50;99.90
17687;DHT22;8962;52.538;13.266;2022-12-16T14:35:48;-1.50;99.90
17687;DHT22;8962;52.538;13.266;2022-12-16T14:38:34;-1.50;99.90
17687;DHT22;8962;52.538;13.266;2022-12-16T14:41:24;-1.60;99.90
17687;DHT22;8962;52.538;13.266;2022-12-16T14:44:16;-1.60;99.90
17687;DHT22;8962;52.538;13.266;2022-12-16T14:47:02;-1.70;99.90
17687;DHT22;8962;52.538;13.266;2022-12-16T14:49:50;-1.60;99.90
17687;DHT22;8962;52.538;13.266;2022-12-16T14:52:38;-1.70;99.90
17687;DHT22;8962;52.538;13.266;2022-12-16T14:55:27;-1.70;99.90
17687;DHT22;8962;52.538;13.266;2022-12-16T14:58:13;-1.80;99.90
17687;DHT22;8962;52.538;13.266;2022-12-16T15:01:01;-1.80;99.90
17687;DHT22;8962;52.538;13.266;2022-12-16T15:03:51;-1.80;99.90
17687;DHT22;8962;52.538;13.266;2022-12-16T15:06:40;-1.80;99.90
17687;DHT22;8962;52.538;13.266;2022-12-16T15:09:29;-1.80;99.90
17687;DHT22;8962;52.538;13.266;2022-12-16T15:12:18;-1.80;99.90
17687;DHT22;8962;52.538;13.266;2022-12-16T15:15:05;-1.90;99.90
17687;DHT22;8962;52.538;13.266;2022-12-16T15:17:54;-1.90;99.90
17687;DHT22;8962;52.538;13.266;2022-12-16T15:20:48;-1.90;99.90
17687;DHT22;8962;52.538;13.266;2022-12-16T15:23:39;-1.90;99.90
17687;DHT22;8962;52.538;13.266;2022-12-16T15:26:26;-1.90;99.90
17687;DHT22;8962;52.538;13.266;2022-12-16T15:29:28;-1.80;99.90
17687;DHT22;8962;52.538;13.266;2022-12-16T15:32:32;-1.80;99.90
17687;DHT22;8962;52.538;13.266;2022-12-16T15:35:31;-1.80;99.90
17687;DHT22;8962;52.538;13.266;2022-12-16T15:38:28;-1.80;99.90
17687;DHT22;8962;52.538;13.266;2022-12-16T15:41:20;-1.80;99.90
17687;DHT22;8962;52.538;13.266;2022-12-16T15:44:13;-1.90;99.90
17687;DHT22;8962;52.538;13.266;2022-12-16T15:46:58;-1.90;99.90
17687;DHT22;8962;52.538;13.266;2022-12-16T15:49:46;-1.90;99.90
17687;DHT22;8962;52.538;13.266;2022-12-16T15:52:36;-1.90;99.90
17687;DHT22;8962;52.538;13.266;2022-12-16T15:55:29;-2.00;99.90
17687;DHT22;8962;52.538;13.266;2022-12-16T15:58:20;-2.10;99.90
17687;DHT22;8962;52.538;13.266;2022-12-16T16:01:06;-2.10;99.90
17687;DHT22;8962;52.538;13.266;2022-12-16T16:03:53;-2.00;99.90
17687;DHT22;8962;52.538;13.266;2022-12-16T16:06:40;-2.00;99.90
17687;DHT22;8962;52.538;13.266;2022-12-16T16:09:27;-1.90;99.90
17687;DHT22;8962;52.538;13.266;2022-12-16T16:12:16;-1.90;99.90
17687;DHT22;8962;52.538;13.266;2022-12-16T16:15:00;-1.90;99.90
17687;DHT22;8962;52.538;13.266;2022-12-16T16:17:46;-1.80;99.90
17687;DHT22;8962;52.538;13.266;2022-12-16T16:20:31;-1.80;99.90
17687;DHT22;8962;52.538;13.266;2022-12-16T16:23:16;-1.80;99.90
17687;DHT22;8962;52.538;13.266;2022-12-16T16:26:02;-1.80;99.90
17687;DHT22;8962;52.538;13.266;2022-12-16T16:28:57;-1.80;99.90
17687;DHT22;8962;52.538;13.266;2022-12-16T16:31:44;-1.80;99.90
17687;DHT22;8962;52.538;13.266;2022-12-16T16:34:29;-1.80;99.90
17687;DHT22;8962;52.538;13.266;2022-12-16T16:37:18;-1.90;99.90
17687;DHT22;8962;52.538;13.266;2022-12-16T16:40:18;-1.80;99.90
17687;DHT22;8962;52.538;13.266;2022-12-16T16:43:21;-1.90;99.90
17687;DHT22;8962;52.538;13.266;2022-12-16T16:46:29;-1.90;99.90
17687;DHT22;8962;52.538;13.266;2022-12-16T16:49:38;-1.90;99.90
17687;DHT22;8962;52.538;13.266;2022-12-16T16:52:28;-1.80;99.90
17687;DHT22;8962;52.538;13.266;2022-12-16T16:55:15;-1.70;99.90
17687;DHT22;8962;52.538;13.266;2022-12-16T16:58:04;-1.70;99.90
17687;DHT22;8962;52.538;13.266;2022-12-16T17:00:50;-1.70;99.90
17687;DHT22;8962;52.538;13.266;2022-12-16T17:03:36;-1.70;99.90
17687;DHT22;8962;52.538;13.266;2022-12-16T17:06:21;-1.80;99.90
17687;DHT22;8962;52.538;13.266;2022-12-16T17:09:06;-1.80;99.90
17687;DHT22;8962;52.538;13.266;2022-12-16T17:11:52;-1.80;99.90
17687;DHT22;8962;52.538;13.266;2022-12-16T17:14:38;-1.90;99.90
17687;DHT22;8962;52.538;13.266;2022-12-16T17:17:22;-1.90;99.90
17687;DHT22;8962;52.538;13.266;2022-12-16T17:20:16;-1.80;99.90
17687;DHT22;8962;52.538;13.266;2022-12-16T17:23:02;-1.80;99.90
17687;DHT22;8962;52.538;13.266;2022-12-16T17:25:46;-1.80;99.90
17687;DHT22;8962;52.538;13.266;2022-12-16T17:28:33;-1.70;99.90